createdAt,value
2019-04-19T00:01:59.493Z,12.80
2019-04-19T00:04:25.835Z,12.80
2019-04-19T00:07:05.707Z,12.80
2019-04-19T00:09:41.534Z,12.70
2019-04-19T00:12:14.676Z,12.70
2019-04-19T00:14:33.705Z,12.70
2019-04-19T00:17:07.090Z,12.60
2019-04-19T00:19:52.555Z,12.60
2019-04-19T00:22:23.054Z,12.70
2019-04-19T00:24:37.576Z,12.70
2019-04-19T00:27:07.757Z,12.80
2019-04-19T00:29:44.807Z,12.70
2019-04-19T00:32:24.416Z,12.60
2019-04-19T00:34:39.952Z,12.60
2019-04-19T00:37:09.979Z,12.50
2019-04-19T00:40:18.207Z,12.60
2019-04-19T00:42:48.413Z,12.50
2019-04-19T00:45:31.119Z,12.40
2019-04-19T00:48:04.325Z,12.50
2019-04-19T00:50:35.086Z,12.60
2019-04-19T00:53:07.963Z,12.60
2019-04-19T00:55:36.945Z,12.60
2019-04-19T00:58:06.352Z,12.60
2019-04-19T01:00:30.930Z,12.50
2019-04-19T01:02:59.902Z,12.40
2019-04-19T01:05:32.023Z,12.40
2019-04-19T01:08:10.470Z,12.50
2019-04-19T01:10:43.816Z,12.40
2019-04-19T01:13:13.888Z,12.50
2019-04-19T01:15:49.451Z,12.50
2019-04-19T01:18:20.229Z,12.50
2019-04-19T01:20:37.515Z,12.50
2019-04-19T01:23:11.697Z,12.50
2019-04-19T01:25:39.291Z,12.30
2019-04-19T01:28:15.949Z,12.10
2019-04-19T01:30:42.845Z,12.00
2019-04-19T01:33:12.456Z,12.10
2019-04-19T01:35:46.478Z,12.00
2019-04-19T01:38:13.694Z,12.00
2019-04-19T01:41:06.806Z,12.00
2019-04-19T01:43:34.376Z,12.00
2019-04-19T01:46:14.574Z,11.90
2019-04-19T01:49:01.863Z,11.90
2019-04-19T01:52:04.485Z,11.90
2019-04-19T01:54:29.868Z,11.80
2019-04-19T01:56:53.635Z,11.80
2019-04-19T01:59:20.418Z,11.80
2019-04-19T02:01:59.497Z,11.80
2019-04-19T02:04:26.194Z,11.90
2019-04-19T02:06:53.356Z,11.80
2019-04-19T02:09:31.751Z,11.80
2019-04-19T02:12:14.469Z,11.70
2019-04-19T02:14:38.525Z,11.70
2019-04-19T02:17:06.189Z,11.60
2019-04-19T02:19:34.748Z,11.60
2019-04-19T02:22:11.197Z,11.60
2019-04-19T02:24:41.753Z,11.50
2019-04-19T02:27:09.466Z,11.50
2019-04-19T02:29:38.435Z,11.40
2019-04-19T02:32:31.111Z,11.40
2019-04-19T02:35:06.115Z,11.30
2019-04-19T02:37:32.238Z,11.30
2019-04-19T02:40:38.912Z,11.30
2019-04-19T02:50:11.443Z,11.30
2019-04-19T02:55:14.180Z,11.30
2019-04-19T02:57:59.264Z,11.20
2019-04-19T03:00:54.537Z,11.10
2019-04-19T03:03:24.799Z,11.00
2019-04-19T03:06:00.058Z,10.90
2019-04-19T03:08:06.410Z,10.80
2019-04-19T03:10:49.907Z,10.70
2019-04-19T03:13:21.744Z,10.70
2019-04-19T03:15:53.837Z,10.90
2019-04-19T03:18:29.043Z,10.80
2019-04-19T03:20:55.521Z,10.70
2019-04-19T03:23:26.322Z,10.80
2019-04-19T03:25:54.359Z,10.80
2019-04-19T03:28:28.186Z,10.70
2019-04-19T03:31:18.715Z,10.70
2019-04-19T03:33:50.565Z,10.70
2019-04-19T03:36:06.965Z,10.70
2019-04-19T03:38:40.419Z,10.70
2019-04-19T03:41:15.724Z,10.70
2019-04-19T03:43:47.214Z,10.80
2019-04-19T03:46:15.881Z,10.70
2019-04-19T03:48:50.358Z,10.80
2019-04-19T03:51:19.676Z,10.70
2019-04-19T03:53:56.171Z,10.80
2019-04-19T03:56:30.397Z,10.80
2019-04-19T03:58:39.819Z,10.70
2019-04-19T04:01:10.720Z,10.70
2019-04-19T04:03:44.529Z,10.60
2019-04-19T04:06:13.503Z,10.60
2019-04-19T04:08:48.313Z,10.50
2019-04-19T04:11:31.919Z,10.30
2019-04-19T04:14:21.761Z,10.20
2019-04-19T04:17:01.858Z,10.20
2019-04-19T04:19:31.637Z,10.20
2019-04-19T04:22:01.212Z,10.10
2019-04-19T04:24:37.114Z,10.20
2019-04-19T04:27:09.697Z,10.30
2019-04-19T04:29:40.046Z,10.40
2019-04-19T04:32:12.793Z,10.40
2019-04-19T04:34:47.830Z,10.40
2019-04-19T04:37:25.748Z,10.40
2019-04-19T04:39:38.599Z,10.40
2019-04-19T04:42:19.491Z,10.40
2019-04-19T04:45:10.614Z,10.40
2019-04-19T04:47:47.512Z,10.40
2019-04-19T04:50:56.295Z,10.40
2019-04-19T04:53:10.912Z,10.30
2019-04-19T04:56:07.049Z,10.40
2019-04-19T04:58:37.556Z,10.50
2019-04-19T05:01:10.861Z,10.50
2019-04-19T05:03:55.568Z,10.60
2019-04-19T05:06:25.846Z,10.60
2019-04-19T05:08:56.286Z,10.70
2019-04-19T05:11:25.747Z,10.70
2019-04-19T05:14:00.360Z,10.60
2019-04-19T05:16:53.654Z,10.90
2019-04-19T05:18:58.251Z,11.70
2019-04-19T05:21:34.987Z,12.60
2019-04-19T05:24:10.477Z,13.20
2019-04-19T05:29:04.809Z,14.30
2019-04-19T05:31:29.063Z,14.40
2019-04-19T05:34:12.507Z,14.40
2019-04-19T05:36:43.721Z,14.40
2019-04-19T05:39:25.153Z,14.70
2019-04-19T05:42:03.753Z,14.40
2019-04-19T05:45:20.644Z,14.30
2019-04-19T05:47:32.354Z,14.30
2019-04-19T05:50:07.547Z,14.60
2019-04-19T05:52:38.536Z,14.90
2019-04-19T05:54:51.553Z,14.80
2019-04-19T05:57:40.132Z,15.00
2019-04-19T06:00:03.122Z,15.20
2019-04-19T06:02:31.382Z,15.50
2019-04-19T06:05:20.230Z,16.00
2019-04-19T06:07:39.272Z,16.30
2019-04-19T06:09:58.122Z,16.60
2019-04-19T06:12:31.563Z,17.20
2019-04-19T06:15:19.080Z,17.50
2019-04-19T06:18:05.581Z,18.00
2019-04-19T06:20:43.913Z,18.30
2019-04-19T06:23:17.183Z,18.90
2019-04-19T06:25:52.733Z,18.60
2019-04-19T06:28:36.952Z,17.70
2019-04-19T06:30:50.553Z,17.00
2019-04-19T06:33:21.661Z,16.00
2019-04-19T06:35:41.651Z,15.40
2019-04-19T06:38:03.477Z,15.10
2019-04-19T06:40:36.221Z,14.80
2019-04-19T06:43:13.379Z,14.80
2019-04-19T06:45:53.005Z,14.70
2019-04-19T06:48:14.301Z,14.50
2019-04-19T06:50:44.545Z,14.50
2019-04-19T06:53:12.177Z,14.50
2019-04-19T06:55:47.339Z,14.70
2019-04-19T06:58:19.592Z,14.70
2019-04-19T07:01:00.754Z,14.70
2019-04-19T07:03:17.801Z,14.90
2019-04-19T07:06:06.550Z,14.90
2019-04-19T07:08:57.563Z,14.90
2019-04-19T07:11:11.627Z,15.00
2019-04-19T07:13:35.958Z,15.10
2019-04-19T07:16:21.860Z,15.20
2019-04-19T07:18:39.159Z,15.20
2019-04-19T07:21:19.570Z,15.30
2019-04-19T07:23:49.897Z,15.50
2019-04-19T07:26:20.311Z,15.50
2019-04-19T07:28:33.662Z,15.60
2019-04-19T07:31:06.405Z,15.70
2019-04-19T07:33:46.691Z,15.80
2019-04-19T07:36:22.645Z,15.90
2019-04-19T07:39:00.735Z,15.90
2019-04-19T07:41:26.782Z,16.00
2019-04-19T07:44:02.976Z,16.10
2019-04-19T07:46:38.411Z,16.20
2019-04-19T07:48:57.892Z,16.20
2019-04-19T07:51:32.654Z,16.30
2019-04-19T07:54:00.673Z,16.40
2019-04-19T07:56:44.203Z,16.50
2019-04-19T07:59:28.038Z,16.60
2019-04-19T08:02:10.852Z,16.60
2019-04-19T08:04:42.563Z,16.70
2019-04-19T08:07:13.699Z,16.80
2019-04-19T08:09:34.504Z,16.90
2019-04-19T08:17:35.387Z,17.10
2019-04-19T08:29:36.447Z,17.50
2019-04-19T08:31:51.421Z,17.50
2019-04-19T08:34:24.758Z,17.60
2019-04-19T08:36:58.558Z,17.60
2019-04-19T08:39:43.372Z,17.70
2019-04-19T08:42:16.895Z,17.70
2019-04-19T08:44:41.950Z,17.80
2019-04-19T08:47:33.513Z,18.00
2019-04-19T08:50:05.241Z,18.10
2019-04-19T08:52:36.967Z,18.30
2019-04-19T08:55:25.683Z,18.40
2019-04-19T08:57:40.558Z,18.40
2019-04-19T09:00:41.001Z,18.40
2019-04-19T09:02:59.005Z,18.40
2019-04-19T09:05:31.203Z,18.50
2019-04-19T09:08:05.129Z,18.60
2019-04-19T09:10:35.460Z,18.70
2019-04-19T09:13:18.453Z,18.80
2019-04-19T09:15:35.583Z,18.90
2019-04-19T09:20:46.510Z,19.00
2019-04-19T09:23:13.215Z,19.10
2019-04-19T09:26:03.546Z,19.20
2019-04-19T09:28:56.381Z,19.30
2019-04-19T09:31:09.896Z,19.40
2019-04-19T09:33:29.790Z,19.50
2019-04-19T09:36:03.307Z,19.70
2019-04-19T09:38:43.356Z,19.80
2019-04-19T09:41:05.921Z,19.80
2019-04-19T09:43:42.005Z,19.80
2019-04-19T09:46:02.285Z,19.80
2019-04-19T09:48:51.855Z,19.90
2019-04-19T09:51:23.172Z,20.00
2019-04-19T09:54:02.874Z,20.00
2019-04-19T09:56:23.168Z,20.00
2019-04-19T09:58:52.314Z,20.10
2019-04-19T10:01:10.611Z,20.30
2019-04-19T10:03:45.842Z,20.40
2019-04-19T10:06:11.467Z,20.50
2019-04-19T10:08:42.110Z,20.40
2019-04-19T10:11:12.723Z,20.40
2019-04-19T10:13:42.347Z,20.50
2019-04-19T10:16:42.789Z,20.50
2019-04-19T10:19:13.193Z,20.60
2019-04-19T10:22:10.563Z,20.70
2019-04-19T10:24:41.190Z,20.80
2019-04-19T10:27:31.161Z,20.70
2019-04-19T10:30:02.232Z,20.80
2019-04-19T10:32:36.165Z,20.90
2019-04-19T10:35:07.418Z,21.00
2019-04-19T10:37:37.716Z,21.00
2019-04-19T10:40:11.484Z,21.00
2019-04-19T10:42:41.307Z,21.20
2019-04-19T10:45:12.239Z,21.20
2019-04-19T10:47:42.097Z,21.20
2019-04-19T10:50:26.369Z,21.30
2019-04-19T10:52:43.795Z,21.30
2019-04-19T10:55:14.106Z,21.40
2019-04-19T10:57:43.760Z,21.50
2019-04-19T11:00:13.844Z,21.60
2019-04-19T11:02:47.093Z,21.70
2019-04-19T11:05:16.975Z,21.60
2019-04-19T11:07:47.640Z,21.60
2019-04-19T11:10:17.929Z,21.60
2019-04-19T11:12:47.626Z,21.70
2019-04-19T11:15:18.444Z,21.70
2019-04-19T11:17:48.806Z,21.80
2019-04-19T11:20:29.475Z,21.80
2019-04-19T11:22:50.762Z,21.90
2019-04-19T11:25:22.188Z,21.90
2019-04-19T11:27:53.359Z,22.00
2019-04-19T11:30:35.104Z,22.10
2019-04-19T11:33:10.888Z,22.00
2019-04-19T11:35:45.619Z,22.00
2019-04-19T11:38:15.317Z,22.00
2019-04-19T11:40:44.957Z,22.10
2019-04-19T11:43:16.193Z,22.10
2019-04-19T11:45:46.569Z,22.00
2019-04-19T11:48:16.218Z,22.20
2019-04-19T11:50:45.892Z,22.30
2019-04-19T11:53:22.712Z,22.40
2019-04-19T11:56:04.697Z,22.40
2019-04-19T11:58:35.845Z,22.40
2019-04-19T12:01:16.026Z,22.40
2019-04-19T12:03:45.903Z,22.40
2019-04-19T12:06:16.165Z,22.50
2019-04-19T12:08:46.407Z,22.60
2019-04-19T12:11:22.514Z,22.70
2019-04-19T12:13:52.346Z,22.60
2019-04-19T12:16:23.382Z,22.50
2019-04-19T12:18:54.055Z,22.60
2019-04-19T12:21:25.215Z,22.60
2019-04-19T12:23:55.031Z,22.70
2019-04-19T12:26:25.662Z,22.60
2019-04-19T12:28:55.680Z,22.70
2019-04-19T12:31:27.409Z,22.60
2019-04-19T12:33:57.561Z,22.60
2019-04-19T12:36:27.192Z,22.60
2019-04-19T12:38:58.761Z,22.70
2019-04-19T12:41:30.060Z,22.80
2019-04-19T12:43:59.938Z,22.90
2019-04-19T12:46:30.777Z,22.80
2019-04-19T12:49:00.507Z,22.90
2019-04-19T12:51:30.146Z,22.90
2019-04-19T12:54:00.396Z,22.90
2019-04-19T12:56:30.155Z,22.80
2019-04-19T12:58:59.917Z,22.90
2019-04-19T13:01:41.838Z,23.00
2019-04-19T13:04:14.761Z,22.90
2019-04-19T13:06:58.736Z,22.90
2019-04-19T13:09:28.778Z,22.90
2019-04-19T13:11:59.008Z,22.90
2019-04-19T13:14:29.821Z,22.90
2019-04-19T13:17:02.107Z,22.90
2019-04-19T13:19:31.690Z,23.00
2019-04-19T13:22:02.559Z,22.90
2019-04-19T13:24:32.324Z,22.90
2019-04-19T13:27:03.181Z,22.90
2019-04-19T13:29:33.545Z,22.90
2019-04-19T13:32:04.386Z,23.10
2019-04-19T13:34:34.206Z,23.00
2019-04-19T13:37:29.287Z,23.00
2019-04-19T13:40:17.874Z,23.00
2019-04-19T13:42:48.739Z,23.00
2019-04-19T13:45:26.592Z,23.10
2019-04-19T13:47:52.323Z,23.00
2019-04-19T13:50:29.401Z,23.10
2019-04-19T13:52:54.831Z,23.10
2019-04-19T13:55:24.496Z,23.20
2019-04-19T13:57:54.142Z,23.10
2019-04-19T14:00:40.606Z,23.10
2019-04-19T14:03:11.674Z,23.20
2019-04-19T14:05:41.773Z,23.10
2019-04-19T14:08:11.506Z,23.10
2019-04-19T14:10:41.509Z,23.00
2019-04-19T14:13:11.315Z,23.00
2019-04-19T14:15:42.709Z,23.00
2019-04-19T14:18:12.847Z,23.10
2019-04-19T14:20:47.578Z,23.10
2019-04-19T14:23:15.308Z,23.10
2019-04-19T14:25:45.398Z,23.00
2019-04-19T14:28:15.679Z,23.00
2019-04-19T14:30:47.253Z,23.10
2019-04-19T14:33:19.068Z,23.00
2019-04-19T14:35:50.072Z,23.00
2019-04-19T14:38:19.714Z,23.00
2019-04-19T14:40:49.663Z,23.00
2019-04-19T14:43:20.439Z,23.10
2019-04-19T14:45:50.680Z,23.00
2019-04-19T14:48:31.565Z,23.10
2019-04-19T14:51:04.294Z,23.10
2019-04-19T14:53:29.171Z,23.10
2019-04-19T14:56:00.181Z,23.00
2019-04-19T14:58:30.318Z,23.00
2019-04-19T15:01:14.999Z,23.00
2019-04-19T15:03:48.496Z,23.00
2019-04-19T15:06:19.695Z,23.00
2019-04-19T15:08:49.815Z,23.10
2019-04-19T15:11:19.582Z,23.20
2019-04-19T15:13:50.833Z,23.20
2019-04-19T15:16:21.007Z,23.20
2019-04-19T15:18:51.672Z,23.10
2019-04-19T15:21:23.321Z,23.10
2019-04-19T15:23:52.638Z,23.00
2019-04-19T15:26:22.695Z,22.90
2019-04-19T15:28:53.144Z,23.00
2019-04-19T15:31:23.910Z,23.00
2019-04-19T15:33:54.520Z,23.00
2019-04-19T15:36:24.128Z,23.10
2019-04-19T15:38:54.096Z,23.10
2019-04-19T15:41:23.988Z,23.10
2019-04-19T15:43:54.275Z,23.00
2019-04-19T15:46:26.377Z,22.90
2019-04-19T15:48:58.126Z,23.00
2019-04-19T15:51:32.575Z,23.00
2019-04-19T15:54:00.307Z,23.00
2019-04-19T15:56:30.240Z,23.00
2019-04-19T15:59:00.876Z,23.00
2019-04-19T16:01:50.227Z,22.90
2019-04-19T16:04:37.778Z,22.90
2019-04-19T16:07:10.293Z,22.90
2019-04-19T16:10:00.105Z,22.90
2019-04-19T16:12:35.774Z,22.90
2019-04-19T16:15:06.205Z,22.90
2019-04-19T16:17:35.894Z,22.90
2019-04-19T16:20:07.254Z,22.80
2019-04-19T16:22:38.151Z,22.80
2019-04-19T16:25:09.635Z,22.60
2019-04-19T16:27:42.040Z,22.60
2019-04-19T16:30:12.328Z,22.60
2019-04-19T16:32:41.910Z,22.60
2019-04-19T16:35:12.111Z,22.50
2019-04-19T16:37:42.810Z,22.60
2019-04-19T16:40:18.706Z,22.50
2019-04-19T16:42:49.637Z,22.50
2019-04-19T16:45:21.931Z,22.50
2019-04-19T16:47:51.794Z,22.50
2019-04-19T16:50:22.706Z,22.60
2019-04-19T16:52:52.490Z,22.50
2019-04-19T16:55:23.265Z,22.40
2019-04-19T16:57:54.518Z,22.50
2019-04-19T17:00:38.576Z,22.50
2019-04-19T17:03:09.624Z,22.40
2019-04-19T17:05:39.351Z,22.40
2019-04-19T17:08:09.361Z,22.20
2019-04-19T17:10:39.073Z,22.20
2019-04-19T17:13:08.691Z,22.20
2019-04-19T17:15:47.129Z,22.10
2019-04-19T17:18:43.038Z,22.10
2019-04-19T17:21:13.922Z,22.00
2019-04-19T17:23:44.686Z,22.00
2019-04-19T17:26:15.090Z,21.90
2019-04-19T17:28:44.688Z,22.20
2019-04-19T17:31:14.454Z,22.40
2019-04-19T17:33:44.246Z,22.80
2019-04-19T17:36:14.407Z,23.60
2019-04-19T17:38:47.018Z,24.20
2019-04-19T17:41:16.508Z,24.60
2019-04-19T17:43:46.199Z,24.80
2019-04-19T17:46:15.747Z,25.10
2019-04-19T17:48:46.457Z,25.10
2019-04-19T17:51:16.265Z,24.90
2019-04-19T17:53:50.105Z,24.30
2019-04-19T17:56:17.412Z,24.00
2019-04-19T17:58:48.454Z,23.60
2019-04-19T18:01:18.142Z,23.40
2019-04-19T18:03:49.001Z,23.20
2019-04-19T18:06:20.264Z,22.80
2019-04-19T18:08:49.928Z,22.50
2019-04-19T18:11:22.649Z,22.20
2019-04-19T18:13:51.033Z,21.90
2019-04-19T18:16:20.754Z,21.50
2019-04-19T18:18:52.557Z,21.10
2019-04-19T18:21:23.839Z,21.00
2019-04-19T18:24:05.328Z,20.80
2019-04-19T18:26:29.872Z,20.60
2019-04-19T18:28:56.635Z,20.40
2019-04-19T18:31:32.809Z,20.30
2019-04-19T18:34:03.988Z,20.00
2019-04-19T18:36:29.454Z,19.90
2019-04-19T18:39:00.352Z,19.90
2019-04-19T18:41:31.268Z,19.80
2019-04-19T18:44:13.393Z,19.80
2019-04-19T18:46:33.179Z,19.60
2019-04-19T18:49:03.450Z,19.50
2019-04-19T18:51:38.503Z,19.40
2019-04-19T18:54:17.064Z,19.30
2019-04-19T18:56:36.171Z,19.10
2019-04-19T18:59:14.290Z,19.00
2019-04-19T19:01:39.451Z,19.00
2019-04-19T19:04:14.544Z,18.90
2019-04-19T19:06:42.149Z,18.80
2019-04-19T19:09:14.154Z,18.70
2019-04-19T19:11:45.212Z,18.50
2019-04-19T19:14:17.108Z,18.60
2019-04-19T19:16:48.276Z,18.60
2019-04-19T19:19:23.615Z,18.50
2019-04-19T19:21:50.380Z,18.50
2019-04-19T19:24:37.741Z,18.40
2019-04-19T19:27:04.514Z,18.20
2019-04-19T19:29:22.533Z,18.20
2019-04-19T19:31:57.785Z,18.10
2019-04-19T19:34:26.955Z,18.10
2019-04-19T19:36:57.132Z,18.00
2019-04-19T19:39:32.444Z,17.90
2019-04-19T19:42:36.143Z,18.00
2019-04-19T19:44:42.835Z,18.00
2019-04-19T19:47:51.537Z,18.00
2019-04-19T19:50:18.127Z,17.80
2019-04-19T19:52:44.387Z,17.70
2019-04-19T19:55:12.859Z,17.50
2019-04-19T19:57:38.102Z,17.50
2019-04-19T20:00:09.951Z,17.40
2019-04-19T20:02:42.797Z,17.40
2019-04-19T20:05:00.691Z,17.40
2019-04-19T20:07:37.156Z,17.30
2019-04-19T20:10:06.761Z,17.20
2019-04-19T20:12:35.826Z,17.10
2019-04-19T20:15:06.038Z,17.00
2019-04-19T20:17:38.725Z,17.00
2019-04-19T20:20:08.504Z,17.10
2019-04-19T20:22:41.397Z,17.00
2019-04-19T20:25:24.410Z,17.00
2019-04-19T20:27:45.649Z,17.10
2019-04-19T20:30:12.456Z,17.10
2019-04-19T20:32:44.797Z,17.00
2019-04-19T20:35:17.995Z,16.90
2019-04-19T20:37:46.435Z,16.90
2019-04-19T20:40:18.918Z,16.90
2019-04-19T20:43:10.848Z,16.90
2019-04-19T20:45:29.012Z,16.70
2019-04-19T20:47:54.454Z,16.60
2019-04-19T20:50:33.695Z,16.70
2019-04-19T20:53:29.556Z,16.60
2019-04-19T20:56:24.570Z,16.70
2019-04-19T20:58:31.949Z,16.70
2019-04-19T21:00:57.277Z,16.70
2019-04-19T21:03:33.003Z,16.60
2019-04-19T21:05:58.178Z,16.60
2019-04-19T21:08:28.975Z,16.60
2019-04-19T21:11:02.682Z,16.40
2019-04-19T21:13:31.410Z,16.40
2019-04-19T21:16:02.232Z,16.40
2019-04-19T21:18:32.665Z,16.40
2019-04-19T21:21:09.055Z,16.40
2019-04-19T21:23:36.198Z,16.40
2019-04-19T21:26:16.106Z,16.30
2019-04-19T21:28:42.593Z,16.30
2019-04-19T21:31:09.560Z,16.20
2019-04-19T21:33:45.034Z,16.10
2019-04-19T21:36:12.984Z,16.00
2019-04-19T21:38:47.689Z,16.00
2019-04-19T21:41:23.142Z,15.90
2019-04-19T21:43:46.878Z,15.80
2019-04-19T21:46:20.042Z,15.80
2019-04-19T21:48:48.979Z,15.80
2019-04-19T21:51:24.181Z,15.70
2019-04-19T21:53:51.365Z,15.70
2019-04-19T21:56:21.784Z,15.70
2019-04-19T21:58:54.563Z,15.60
2019-04-19T22:01:24.629Z,15.60
2019-04-19T22:04:01.544Z,15.50
2019-04-19T22:06:28.557Z,15.50
2019-04-19T22:08:59.241Z,15.50
2019-04-19T22:11:28.346Z,15.50
2019-04-19T22:13:58.303Z,15.40
2019-04-19T22:16:33.310Z,15.20
2019-04-19T22:18:59.433Z,15.10
2019-04-19T22:21:34.674Z,15.00
2019-04-19T22:24:00.485Z,15.00
2019-04-19T22:26:34.520Z,14.90
2019-04-19T22:29:01.694Z,14.80
2019-04-19T22:31:35.729Z,14.80
2019-04-19T22:34:22.228Z,14.80
2019-04-19T22:36:53.479Z,14.90
2019-04-19T22:39:23.448Z,14.90
2019-04-19T22:41:53.067Z,14.80
2019-04-19T22:44:22.998Z,14.80
2019-04-19T22:46:56.302Z,14.70
2019-04-19T22:49:29.626Z,14.80
2019-04-19T22:51:58.504Z,14.70
2019-04-19T22:54:28.624Z,14.60
2019-04-19T22:57:09.391Z,14.50
2019-04-19T22:59:29.683Z,14.60
2019-04-19T23:02:16.989Z,14.50
2019-04-19T23:04:49.240Z,14.40
2019-04-19T23:07:47.475Z,14.30
2019-04-19T23:10:12.768Z,14.30
2019-04-19T23:12:44.470Z,14.30
2019-04-19T23:15:20.354Z,14.30
2019-04-19T23:17:46.400Z,14.40
2019-04-19T23:20:21.462Z,14.30
2019-04-19T23:22:47.834Z,14.30
2019-04-19T23:25:20.199Z,14.20
2019-04-19T23:27:56.223Z,14.10
2019-04-19T23:30:28.998Z,14.00
2019-04-19T23:33:00.018Z,14.00
2019-04-19T23:35:33.305Z,14.00
2019-04-19T23:37:59.431Z,13.90
2019-04-19T23:40:37.038Z,13.90
2019-04-19T23:43:04.028Z,13.90
2019-04-19T23:45:40.140Z,13.80
2019-04-19T23:48:06.896Z,13.70
2019-04-19T23:50:39.606Z,13.70
2019-04-19T23:53:08.059Z,13.80
2019-04-19T23:55:38.369Z,13.70
2019-04-19T23:58:11.927Z,13.70
